sim
Sign-in with your pilot id or email,
or register
Callsign
Passwort

Schedule Details

Flight Number: RYR3843 (2)
Departure: Barcelona El Prat Airport (LEBL) at 14:50
Arrival: London Stansted Airport (EGSS) at 17:20
Route: Ryanair Passenger Schedule. Enter filed route here before submitting Pirep.

Weather Information
Getting current METAR information for LEBL 241530Z 28011KT 250V310 9999 FEW035 16/02 Q1008 NOSIG
Getting current METAR information for EGSS 241520Z AUTO 09008KT 1900 -SN BKN003/// BKN007/// BKN011/// //////TCU 01/00 Q0994

Schedule Frequency

Route Map